Farnborough, United Kingdom

9:35 PM BST on August 29, 2015 (GMT +0100)
IHANTSFA2 | | Change Station
CLOSE
Current Station
Personal Weather Station
Location: Farnborough, HANTS
Elevation: 223 ft
Nearby Weather Stations

Elev 223 ft 51.29 °N, 0.77 °W | Updated 5 minutes ago

Rain
Rain
61.2 °F
Feels Like 61.2 °F
N
0.0
Wind Variable Wind from North
Gusts 0.7 mph

Today
High -- | Low -- °F
--% Chance of Precip.
Yesterday
High -- | Low -- °F
Precip. -- in
6:10 AM 7:56 PM
Full, 100% visible
Pressure 30.06 in
Visibility -9999.0 miles
Clouds
Dew Point 59 °F
Humidity 93%
Rainfall 0.07 in
Snow Depth Not available.
UV Not available.
Pollen Not available.
Air Quality Not available.
Flu Activity Not available.
METAR EGVO 291950Z 09002KT CAVOK 16/14 Q1018 BLU
Pressure 30.06 in
Visibility -9999.0 miles
Clouds
Dew Point 59 °F
Humidity 93%
Rainfall 0.07 in
Snow Depth Not available.
UV Not available.
Pollen Not available.
Air Quality Not available.
Flu Activity Not available.
METAR EGVO 291950Z 09002KT CAVOK 16/14 Q1018 BLU

10-Day Weather Forecast

×

Almanac

Astronomy

Aug. 29, 2015 Rise Set
Actual Time
Civil Twilight
Nautical Twilight
Astronomical Twilight
Moon
Length of Visible Light
Length of Day
Tomorrow will be .
, % of the Moon is Illuminated

Today's Extremes

Country Highs Country Lows

Community

WunderPhotos

Upload Photos

1,850,793 photos uploaded!

WunderBlogs® & News

Nearby

Air Quality

  Air Quality AQ Index Pollutant
Not available.

Snow Depth

Station Depth Elevation

Earthquake Activity

City Distance Mag. Time & Date
Minimum magnitude displayed is 2.5.

Coastal Water Temperatures

Place Temperature

Stations

Nearby Weather Stations

Station Location Temp. Windchill Dew Point Humidity Wind Precip. Elev Updated Type